sensor_id;sensor_type;location;lat;lon;timestamp;P1;durP1;ratioP1;P2;durP2;ratioP2
67995;SDS011;54772;53.544;49.324;2022-08-19T00:01:24;5.28;;;2.78;;
67995;SDS011;54772;53.544;49.324;2022-08-19T00:03:52;5.68;;;2.67;;
67995;SDS011;54772;53.544;49.324;2022-08-19T00:06:19;7.65;;;2.58;;
67995;SDS011;54772;53.544;49.324;2022-08-19T00:08:45;7.12;;;2.60;;
67995;SDS011;54772;53.544;49.324;2022-08-19T00:11:12;4.90;;;2.78;;
67995;SDS011;54772;53.544;49.324;2022-08-19T00:13:39;5.72;;;2.67;;
67995;SDS011;54772;53.544;49.324;2022-08-19T00:16:06;5.72;;;2.72;;
67995;SDS011;54772;53.544;49.324;2022-08-19T00:18:33;7.40;;;3.10;;
67995;SDS011;54772;53.544;49.324;2022-08-19T00:20:59;7.18;;;2.67;;
67995;SDS011;54772;53.544;49.324;2022-08-19T00:23:26;5.10;;;3.22;;
67995;SDS011;54772;53.544;49.324;2022-08-19T00:25:53;4.80;;;2.72;;
67995;SDS011;54772;53.544;49.324;2022-08-19T00:28:20;6.62;;;3.00;;
67995;SDS011;54772;53.544;49.324;2022-08-19T00:30:46;5.55;;;2.78;;
67995;SDS011;54772;53.544;49.324;2022-08-19T00:33:13;5.82;;;3.20;;
67995;SDS011;54772;53.544;49.324;2022-08-19T00:35:41;4.60;;;2.80;;
67995;SDS011;54772;53.544;49.324;2022-08-19T00:38:08;8.57;;;3.03;;
67995;SDS011;54772;53.544;49.324;2022-08-19T00:40:34;4.62;;;2.78;;
67995;SDS011;54772;53.544;49.324;2022-08-19T00:43:01;6.60;;;2.75;;
67995;SDS011;54772;53.544;49.324;2022-08-19T00:45:38;3.25;;;2.05;;
67995;SDS011;54772;53.544;49.324;2022-08-19T00:48:08;6.05;;;2.47;;
67995;SDS011;54772;53.544;49.324;2022-08-19T00:50:35;5.47;;;2.70;;
67995;SDS011;54772;53.544;49.324;2022-08-19T00:53:02;5.32;;;2.97;;
67995;SDS011;54772;53.544;49.324;2022-08-19T00:55:29;2.72;;;1.60;;
67995;SDS011;54772;53.544;49.324;2022-08-19T00:58:01;5.95;;;2.72;;
67995;SDS011;54772;53.544;49.324;2022-08-19T01:00:30;6.57;;;3.15;;
67995;SDS011;54772;53.544;49.324;2022-08-19T01:02:57;4.18;;;2.65;;
67995;SDS011;54772;53.544;49.324;2022-08-19T01:05:25;4.62;;;3.00;;
67995;SDS011;54772;53.544;49.324;2022-08-19T01:07:54;6.03;;;3.05;;
67995;SDS011;54772;53.544;49.324;2022-08-19T01:10:27;8.93;;;3.75;;
67995;SDS011;54772;53.544;49.324;2022-08-19T01:12:57;6.93;;;3.28;;
67995;SDS011;54772;53.544;49.324;2022-08-19T01:15:35;6.72;;;3.42;;
67995;SDS011;54772;53.544;49.324;2022-08-19T01:18:07;6.80;;;3.87;;
67995;SDS011;54772;53.544;49.324;2022-08-19T01:20:36;9.68;;;4.05;;
67995;SDS011;54772;53.544;49.324;2022-08-19T01:23:03;7.72;;;3.78;;
67995;SDS011;54772;53.544;49.324;2022-08-19T01:25:43;8.55;;;4.32;;
67995;SDS011;54772;53.544;49.324;2022-08-19T01:28:23;9.35;;;4.18;;
67995;SDS011;54772;53.544;49.324;2022-08-19T01:30:51;8.80;;;4.28;;
67995;SDS011;54772;53.544;49.324;2022-08-19T01:33:19;10.23;;;4.18;;
67995;SDS011;54772;53.544;49.324;2022-08-19T01:35:45;10.73;;;4.35;;
67995;SDS011;54772;53.544;49.324;2022-08-19T01:38:21;8.73;;;3.67;;
67995;SDS011;54772;53.544;49.324;2022-08-19T01:40:49;9.35;;;3.90;;
67995;SDS011;54772;53.544;49.324;2022-08-19T01:43:16;7.62;;;4.10;;
67995;SDS011;54772;53.544;49.324;2022-08-19T01:45:44;8.48;;;3.75;;
67995;SDS011;54772;53.544;49.324;2022-08-19T01:48:11;12.57;;;3.78;;
67995;SDS011;54772;53.544;49.324;2022-08-19T01:50:38;10.52;;;4.28;;
67995;SDS011;54772;53.544;49.324;2022-08-19T01:53:07;8.68;;;3.90;;
67995;SDS011;54772;53.544;49.324;2022-08-19T01:55:36;9.52;;;4.30;;
67995;SDS011;54772;53.544;49.324;2022-08-19T01:58:04;8.43;;;4.07;;
67995;SDS011;54772;53.544;49.324;2022-08-19T02:00:32;9.80;;;4.43;;
67995;SDS011;54772;53.544;49.324;2022-08-19T02:02:59;9.90;;;3.83;;
67995;SDS011;54772;53.544;49.324;2022-08-19T02:05:26;11.35;;;4.20;;
67995;SDS011;54772;53.544;49.324;2022-08-19T02:07:54;12.45;;;3.65;;
67995;SDS011;54772;53.544;49.324;2022-08-19T02:10:22;6.60;;;3.28;;
67995;SDS011;54772;53.544;49.324;2022-08-19T02:12:48;8.88;;;4.03;;
67995;SDS011;54772;53.544;49.324;2022-08-19T02:15:16;7.78;;;3.53;;
67995;SDS011;54772;53.544;49.324;2022-08-19T02:17:44;5.90;;;3.40;;
67995;SDS011;54772;53.544;49.324;2022-08-19T02:20:11;9.93;;;3.72;;
67995;SDS011;54772;53.544;49.324;2022-08-19T02:22:39;7.97;;;3.28;;
67995;SDS011;54772;53.544;49.324;2022-08-19T02:25:08;8.60;;;3.67;;
67995;SDS011;54772;53.544;49.324;2022-08-19T02:27:36;8.48;;;3.50;;
67995;SDS011;54772;53.544;49.324;2022-08-19T02:30:04;4.75;;;2.60;;
67995;SDS011;54772;53.544;49.324;2022-08-19T02:32:32;6.07;;;2.80;;
67995;SDS011;54772;53.544;49.324;2022-08-19T02:34:59;5.93;;;2.80;;
67995;SDS011;54772;53.544;49.324;2022-08-19T02:37:26;4.22;;;2.45;;
67995;SDS011;54772;53.544;49.324;2022-08-19T02:40:11;5.45;;;3.00;;
67995;SDS011;54772;53.544;49.324;2022-08-19T02:42:38;5.80;;;2.80;;
67995;SDS011;54772;53.544;49.324;2022-08-19T02:45:06;3.62;;;2.45;;
67995;SDS011;54772;53.544;49.324;2022-08-19T02:47:33;7.18;;;3.05;;
67995;SDS011;54772;53.544;49.324;2022-08-19T02:50:01;4.82;;;2.92;;
67995;SDS011;54772;53.544;49.324;2022-08-19T02:52:29;6.40;;;3.10;;
67995;SDS011;54772;53.544;49.324;2022-08-19T02:54:56;5.47;;;2.55;;
67995;SDS011;54772;53.544;49.324;2022-08-19T02:57:23;5.32;;;2.58;;
67995;SDS011;54772;53.544;49.324;2022-08-19T02:59:50;5.37;;;2.62;;
67995;SDS011;54772;53.544;49.324;2022-08-19T03:02:17;5.85;;;2.67;;
67995;SDS011;54772;53.544;49.324;2022-08-19T03:04:43;7.95;;;2.25;;
67995;SDS011;54772;53.544;49.324;2022-08-19T03:07:12;5.32;;;2.28;;
67995;SDS011;54772;53.544;49.324;2022-08-19T03:09:39;5.95;;;2.62;;
67995;SDS011;54772;53.544;49.324;2022-08-19T03:12:07;4.22;;;2.47;;
67995;SDS011;54772;53.544;49.324;2022-08-19T03:14:35;4.93;;;2.37;;
67995;SDS011;54772;53.544;49.324;2022-08-19T03:17:02;5.10;;;2.12;;
67995;SDS011;54772;53.544;49.324;2022-08-19T03:19:30;3.78;;;1.92;;
67995;SDS011;54772;53.544;49.324;2022-08-19T03:21:56;7.90;;;2.17;;
67995;SDS011;54772;53.544;49.324;2022-08-19T03:24:23;5.15;;;2.53;;
67995;SDS011;54772;53.544;49.324;2022-08-19T03:26:51;4.75;;;2.28;;
67995;SDS011;54772;53.544;49.324;2022-08-19T03:29:23;4.07;;;2.47;;
67995;SDS011;54772;53.544;49.324;2022-08-19T03:31:53;4.75;;;2.50;;
67995;SDS011;54772;53.544;49.324;2022-08-19T03:34:24;5.97;;;2.55;;
67995;SDS011;54772;53.544;49.324;2022-08-19T03:36:52;5.68;;;2.45;;
67995;SDS011;54772;53.544;49.324;2022-08-19T03:39:20;6.28;;;2.30;;
67995;SDS011;54772;53.544;49.324;2022-08-19T03:41:48;6.62;;;2.60;;
67995;SDS011;54772;53.544;49.324;2022-08-19T03:44:19;3.72;;;2.10;;
67995;SDS011;54772;53.544;49.324;2022-08-19T03:46:48;7.37;;;3.00;;
67995;SDS011;54772;53.544;49.324;2022-08-19T03:49:16;7.43;;;3.28;;
67995;SDS011;54772;53.544;49.324;2022-08-19T03:51:44;5.75;;;2.55;;
67995;SDS011;54772;53.544;49.324;2022-08-19T03:54:12;7.20;;;2.62;;
67995;SDS011;54772;53.544;49.324;2022-08-19T03:56:40;4.70;;;2.40;;
67995;SDS011;54772;53.544;49.324;2022-08-19T03:59:09;7.25;;;2.65;;
67995;SDS011;54772;53.544;49.324;2022-08-19T04:01:38;8.20;;;2.60;;
67995;SDS011;54772;53.544;49.324;2022-08-19T04:04:06;3.67;;;2.33;;
67995;SDS011;54772;53.544;49.324;2022-08-19T04:06:33;6.03;;;2.53;;
67995;SDS011;54772;53.544;49.324;2022-08-19T04:09:02;4.18;;;2.35;;
67995;SDS011;54772;53.544;49.324;2022-08-19T04:11:32;4.47;;;2.30;;
67995;SDS011;54772;53.544;49.324;2022-08-19T04:14:01;5.28;;;2.15;;
67995;SDS011;54772;53.544;49.324;2022-08-19T04:16:28;4.47;;;2.17;;
67995;SDS011;54772;53.544;49.324;2022-08-19T04:18:56;6.35;;;2.50;;
67995;SDS011;54772;53.544;49.324;2022-08-19T04:21:25;6.68;;;2.28;;
67995;SDS011;54772;53.544;49.324;2022-08-19T04:23:53;4.32;;;2.05;;
67995;SDS011;54772;53.544;49.324;2022-08-19T04:26:22;7.45;;;3.95;;
67995;SDS011;54772;53.544;49.324;2022-08-19T04:28:50;4.25;;;2.83;;
67995;SDS011;54772;53.544;49.324;2022-08-19T04:31:18;4.35;;;2.58;;
67995;SDS011;54772;53.544;49.324;2022-08-19T04:33:47;4.43;;;2.42;;
67995;SDS011;54772;53.544;49.324;2022-08-19T04:36:21;4.75;;;2.65;;
67995;SDS011;54772;53.544;49.324;2022-08-19T04:38:53;3.75;;;2.42;;
67995;SDS011;54772;53.544;49.324;2022-08-19T04:41:20;7.25;;;2.67;;
67995;SDS011;54772;53.544;49.324;2022-08-19T04:44:06;7.20;;;3.20;;
67995;SDS011;54772;53.544;49.324;2022-08-19T04:46:33;5.05;;;2.40;;
67995;SDS011;54772;53.544;49.324;2022-08-19T04:49:00;4.10;;;2.40;;
67995;SDS011;54772;53.544;49.324;2022-08-19T04:51:27;4.00;;;2.40;;
67995;SDS011;54772;53.544;49.324;2022-08-19T04:53:56;6.93;;;2.60;;
67995;SDS011;54772;53.544;49.324;2022-08-19T04:56:25;5.90;;;2.75;;
67995;SDS011;54772;53.544;49.324;2022-08-19T04:58:52;6.80;;;2.70;;
67995;SDS011;54772;53.544;49.324;2022-08-19T05:01:21;4.03;;;2.35;;
67995;SDS011;54772;53.544;49.324;2022-08-19T05:03:49;4.45;;;2.40;;
67995;SDS011;54772;53.544;49.324;2022-08-19T05:06:17;4.35;;;2.60;;
67995;SDS011;54772;53.544;49.324;2022-08-19T05:08:45;4.95;;;2.50;;
67995;SDS011;54772;53.544;49.324;2022-08-19T05:11:22;4.50;;;2.72;;
67995;SDS011;54772;53.544;49.324;2022-08-19T05:13:53;4.70;;;2.47;;
67995;SDS011;54772;53.544;49.324;2022-08-19T05:16:21;6.12;;;1.87;;
67995;SDS011;54772;53.544;49.324;2022-08-19T05:18:48;4.72;;;2.40;;
67995;SDS011;54772;53.544;49.324;2022-08-19T05:21:34;6.25;;;2.67;;
67995;SDS011;54772;53.544;49.324;2022-08-19T05:24:22;7.53;;;2.28;;
67995;SDS011;54772;53.544;49.324;2022-08-19T05:26:49;6.37;;;2.60;;
67995;SDS011;54772;53.544;49.324;2022-08-19T05:29:18;4.62;;;2.62;;
67995;SDS011;54772;53.544;49.324;2022-08-19T05:31:46;3.97;;;2.15;;
67995;SDS011;54772;53.544;49.324;2022-08-19T05:34:14;6.25;;;2.62;;
67995;SDS011;54772;53.544;49.324;2022-08-19T05:36:47;7.25;;;2.22;;
67995;SDS011;54772;53.544;49.324;2022-08-19T05:39:17;4.37;;;2.40;;
67995;SDS011;54772;53.544;49.324;2022-08-19T05:41:45;7.35;;;2.58;;
67995;SDS011;54772;53.544;49.324;2022-08-19T05:44:17;6.60;;;2.65;;
67995;SDS011;54772;53.544;49.324;2022-08-19T05:46:46;7.37;;;2.33;;
67995;SDS011;54772;53.544;49.324;2022-08-19T05:49:13;4.82;;;1.92;;
67995;SDS011;54772;53.544;49.324;2022-08-19T05:51:41;6.95;;;2.62;;
67995;SDS011;54772;53.544;49.324;2022-08-19T05:54:08;6.32;;;2.65;;
67995;SDS011;54772;53.544;49.324;2022-08-19T05:56:39;5.62;;;2.42;;
67995;SDS011;54772;53.544;49.324;2022-08-19T05:59:07;6.20;;;2.90;;
67995;SDS011;54772;53.544;49.324;2022-08-19T06:01:37;5.35;;;2.42;;
67995;SDS011;54772;53.544;49.324;2022-08-19T06:04:04;4.57;;;2.60;;
67995;SDS011;54772;53.544;49.324;2022-08-19T06:06:31;5.22;;;2.58;;
67995;SDS011;54772;53.544;49.324;2022-08-19T06:09:00;5.43;;;2.33;;
67995;SDS011;54772;53.544;49.324;2022-08-19T06:11:35;5.00;;;2.25;;
67995;SDS011;54772;53.544;49.324;2022-08-19T06:14:11;7.10;;;2.53;;
67995;SDS011;54772;53.544;49.324;2022-08-19T06:16:43;5.93;;;2.80;;
67995;SDS011;54772;53.544;49.324;2022-08-19T06:19:12;4.82;;;2.50;;
67995;SDS011;54772;53.544;49.324;2022-08-19T06:21:43;5.40;;;2.50;;
67995;SDS011;54772;53.544;49.324;2022-08-19T06:24:11;6.95;;;2.67;;
67995;SDS011;54772;53.544;49.324;2022-08-19T06:26:41;7.18;;;2.50;;
67995;SDS011;54772;53.544;49.324;2022-08-19T06:29:10;2.80;;;2.10;;
67995;SDS011;54772;53.544;49.324;2022-08-19T06:31:40;4.53;;;2.70;;
67995;SDS011;54772;53.544;49.324;2022-08-19T06:34:15;4.03;;;2.70;;
67995;SDS011;54772;53.544;49.324;2022-08-19T06:36:42;3.80;;;2.40;;
67995;SDS011;54772;53.544;49.324;2022-08-19T06:39:15;5.10;;;2.35;;
67995;SDS011;54772;53.544;49.324;2022-08-19T06:41:48;4.87;;;2.42;;
67995;SDS011;54772;53.544;49.324;2022-08-19T06:44:21;7.82;;;2.55;;
67995;SDS011;54772;53.544;49.324;2022-08-19T06:46:48;5.82;;;2.53;;
67995;SDS011;54772;53.544;49.324;2022-08-19T06:49:15;4.47;;;2.47;;
67995;SDS011;54772;53.544;49.324;2022-08-19T06:51:43;5.35;;;2.55;;
67995;SDS011;54772;53.544;49.324;2022-08-19T06:54:12;5.30;;;2.40;;
67995;SDS011;54772;53.544;49.324;2022-08-19T06:56:40;4.47;;;2.45;;
67995;SDS011;54772;53.544;49.324;2022-08-19T06:59:08;5.68;;;2.33;;
67995;SDS011;54772;53.544;49.324;2022-08-19T07:01:37;6.32;;;2.33;;
67995;SDS011;54772;53.544;49.324;2022-08-19T07:04:10;4.05;;;1.90;;
67995;SDS011;54772;53.544;49.324;2022-08-19T07:06:38;8.50;;;2.40;;
67995;SDS011;54772;53.544;49.324;2022-08-19T07:09:05;7.60;;;2.50;;
67995;SDS011;54772;53.544;49.324;2022-08-19T07:11:32;9.65;;;2.45;;
67995;SDS011;54772;53.544;49.324;2022-08-19T07:13:59;4.72;;;2.40;;
67995;SDS011;54772;53.544;49.324;2022-08-19T07:16:26;4.07;;;2.00;;
67995;SDS011;54772;53.544;49.324;2022-08-19T07:18:53;5.53;;;2.25;;
67995;SDS011;54772;53.544;49.324;2022-08-19T07:21:22;4.53;;;2.40;;
67995;SDS011;54772;53.544;49.324;2022-08-19T07:23:53;3.72;;;2.28;;
67995;SDS011;54772;53.544;49.324;2022-08-19T07:26:22;5.43;;;2.60;;
67995;SDS011;54772;53.544;49.324;2022-08-19T07:28:53;4.20;;;2.62;;
67995;SDS011;54772;53.544;49.324;2022-08-19T07:31:21;4.43;;;2.40;;
67995;SDS011;54772;53.544;49.324;2022-08-19T07:33:49;5.90;;;2.72;;
67995;SDS011;54772;53.544;49.324;2022-08-19T07:36:19;7.07;;;2.58;;
67995;SDS011;54772;53.544;49.324;2022-08-19T07:38:49;6.03;;;2.50;;
67995;SDS011;54772;53.544;49.324;2022-08-19T07:41:19;10.60;;;2.70;;
67995;SDS011;54772;53.544;49.324;2022-08-19T07:43:47;4.18;;;2.25;;
67995;SDS011;54772;53.544;49.324;2022-08-19T07:46:17;4.15;;;2.60;;
67995;SDS011;54772;53.544;49.324;2022-08-19T07:48:45;5.87;;;3.00;;
67995;SDS011;54772;53.544;49.324;2022-08-19T07:51:14;5.90;;;2.22;;
67995;SDS011;54772;53.544;49.324;2022-08-19T07:53:42;10.48;;;2.30;;
67995;SDS011;54772;53.544;49.324;2022-08-19T07:56:10;6.72;;;2.72;;
67995;SDS011;54772;53.544;49.324;2022-08-19T07:58:39;6.15;;;2.42;;
67995;SDS011;54772;53.544;49.324;2022-08-19T08:01:07;9.38;;;2.53;;
67995;SDS011;54772;53.544;49.324;2022-08-19T08:03:39;3.67;;;1.90;;
67995;SDS011;54772;53.544;49.324;2022-08-19T08:06:24;4.90;;;2.33;;
67995;SDS011;54772;53.544;49.324;2022-08-19T08:09:10;5.07;;;1.97;;
67995;SDS011;54772;53.544;49.324;2022-08-19T08:11:38;1.12;;;1.02;;
67995;SDS011;54772;53.544;49.324;2022-08-19T08:14:15;10.18;;;2.25;;
67995;SDS011;54772;53.544;49.324;2022-08-19T08:16:53;4.47;;;2.45;;
67995;SDS011;54772;53.544;49.324;2022-08-19T08:19:21;6.43;;;2.53;;
67995;SDS011;54772;53.544;49.324;2022-08-19T08:21:49;6.78;;;2.50;;
67995;SDS011;54772;53.544;49.324;2022-08-19T08:24:16;6.75;;;2.50;;
67995;SDS011;54772;53.544;49.324;2022-08-19T08:26:43;4.03;;;2.30;;
67995;SDS011;54772;53.544;49.324;2022-08-19T08:29:10;6.75;;;2.35;;
67995;SDS011;54772;53.544;49.324;2022-08-19T08:31:42;5.68;;;1.87;;
67995;SDS011;54772;53.544;49.324;2022-08-19T08:34:10;6.53;;;2.75;;
67995;SDS011;54772;53.544;49.324;2022-08-19T08:36:37;5.65;;;2.10;;
67995;SDS011;54772;53.544;49.324;2022-08-19T08:39:10;6.05;;;2.37;;
67995;SDS011;54772;53.544;49.324;2022-08-19T08:44:28;5.18;;;2.28;;
67995;SDS011;54772;53.544;49.324;2022-08-19T08:47:18;3.12;;;2.03;;
67995;SDS011;54772;53.544;49.324;2022-08-19T08:49:48;3.67;;;2.40;;
67995;SDS011;54772;53.544;49.324;2022-08-19T08:52:26;7.75;;;2.50;;
67995;SDS011;54772;53.544;49.324;2022-08-19T08:54:59;6.32;;;2.45;;
67995;SDS011;54772;53.544;49.324;2022-08-19T08:57:40;3.33;;;2.05;;
67995;SDS011;54772;53.544;49.324;2022-08-19T09:02:52;6.12;;;2.40;;
67995;SDS011;54772;53.544;49.324;2022-08-19T09:05:20;7.22;;;2.95;;
67995;SDS011;54772;53.544;49.324;2022-08-19T09:08:03;5.68;;;2.62;;
67995;SDS011;54772;53.544;49.324;2022-08-19T09:10:52;6.55;;;2.35;;
67995;SDS011;54772;53.544;49.324;2022-08-19T09:16:06;5.85;;;2.50;;
67995;SDS011;54772;53.544;49.324;2022-08-19T09:18:45;4.80;;;2.35;;
67995;SDS011;54772;53.544;49.324;2022-08-19T09:21:14;6.37;;;2.50;;
67995;SDS011;54772;53.544;49.324;2022-08-19T09:23:41;3.62;;;2.35;;
67995;SDS011;54772;53.544;49.324;2022-08-19T09:26:09;3.35;;;2.15;;
67995;SDS011;54772;53.544;49.324;2022-08-19T09:28:39;7.62;;;2.40;;
67995;SDS011;54772;53.544;49.324;2022-08-19T09:31:10;4.90;;;2.22;;
67995;SDS011;54772;53.544;49.324;2022-08-19T09:33:37;3.60;;;2.20;;
67995;SDS011;54772;53.544;49.324;2022-08-19T09:36:08;0.65;;;0.65;;
67995;SDS011;54772;53.544;49.324;2022-08-19T09:38:36;2.53;;;1.50;;
67995;SDS011;54772;53.544;49.324;2022-08-19T09:41:06;6.22;;;2.20;;
67995;SDS011;54772;53.544;49.324;2022-08-19T09:43:37;3.95;;;2.47;;
67995;SDS011;54772;53.544;49.324;2022-08-19T09:46:04;8.27;;;2.75;;
67995;SDS011;54772;53.544;49.324;2022-08-19T09:48:32;5.75;;;2.55;;
67995;SDS011;54772;53.544;49.324;2022-08-19T09:51:03;4.87;;;2.08;;
67995;SDS011;54772;53.544;49.324;2022-08-19T09:53:34;4.12;;;2.55;;
67995;SDS011;54772;53.544;49.324;2022-08-19T09:56:02;4.15;;;2.37;;
67995;SDS011;54772;53.544;49.324;2022-08-19T09:58:29;6.78;;;2.92;;
67995;SDS011;54772;53.544;49.324;2022-08-19T10:00:57;6.30;;;2.12;;
67995;SDS011;54772;53.544;49.324;2022-08-19T10:03:25;7.03;;;2.35;;
67995;SDS011;54772;53.544;49.324;2022-08-19T10:05:52;4.80;;;2.37;;
67995;SDS011;54772;53.544;49.324;2022-08-19T10:08:24;4.53;;;2.05;;
67995;SDS011;54772;53.544;49.324;2022-08-19T10:10:52;2.28;;;1.83;;
67995;SDS011;54772;53.544;49.324;2022-08-19T10:13:20;6.37;;;2.00;;
67995;SDS011;54772;53.544;49.324;2022-08-19T10:15:50;3.20;;;2.20;;
67995;SDS011;54772;53.544;49.324;2022-08-19T10:18:19;3.50;;;2.05;;
67995;SDS011;54772;53.544;49.324;2022-08-19T10:20:46;3.85;;;2.05;;
67995;SDS011;54772;53.544;49.324;2022-08-19T10:23:13;5.20;;;2.30;;
67995;SDS011;54772;53.544;49.324;2022-08-19T10:25:40;4.50;;;2.42;;
67995;SDS011;54772;53.544;49.324;2022-08-19T10:28:08;4.12;;;2.28;;
67995;SDS011;54772;53.544;49.324;2022-08-19T10:30:37;4.37;;;2.20;;
67995;SDS011;54772;53.544;49.324;2022-08-19T10:33:05;2.78;;;2.22;;
67995;SDS011;54772;53.544;49.324;2022-08-19T10:35:32;3.42;;;2.00;;
67995;SDS011;54772;53.544;49.324;2022-08-19T10:37:59;4.78;;;2.05;;
67995;SDS011;54772;53.544;49.324;2022-08-19T10:40:27;3.20;;;2.10;;
67995;SDS011;54772;53.544;49.324;2022-08-19T10:42:54;4.95;;;2.00;;
67995;SDS011;54772;53.544;49.324;2022-08-19T10:45:22;4.70;;;2.20;;
67995;SDS011;54772;53.544;49.324;2022-08-19T10:47:52;4.70;;;2.30;;
67995;SDS011;54772;53.544;49.324;2022-08-19T10:50:19;5.30;;;2.28;;
67995;SDS011;54772;53.544;49.324;2022-08-19T10:53:05;2.97;;;2.00;;
67995;SDS011;54772;53.544;49.324;2022-08-19T10:55:36;3.00;;;1.67;;
67995;SDS011;54772;53.544;49.324;2022-08-19T10:58:21;2.70;;;2.10;;
67995;SDS011;54772;53.544;49.324;2022-08-19T11:00:51;5.65;;;2.17;;
67995;SDS011;54772;53.544;49.324;2022-08-19T11:03:19;7.57;;;2.30;;
67995;SDS011;54772;53.544;49.324;2022-08-19T11:05:45;3.25;;;2.10;;
67995;SDS011;54772;53.544;49.324;2022-08-19T11:08:14;4.35;;;2.05;;
67995;SDS011;54772;53.544;49.324;2022-08-19T11:10:41;3.35;;;1.75;;
67995;SDS011;54772;53.544;49.324;2022-08-19T11:13:08;3.95;;;2.33;;
67995;SDS011;54772;53.544;49.324;2022-08-19T11:15:34;2.87;;;2.53;;
67995;SDS011;54772;53.544;49.324;2022-08-19T11:18:02;6.40;;;2.50;;
67995;SDS011;54772;53.544;49.324;2022-08-19T11:20:29;4.68;;;2.30;;
67995;SDS011;54772;53.544;49.324;2022-08-19T11:22:56;2.65;;;2.05;;
67995;SDS011;54772;53.544;49.324;2022-08-19T11:25:23;2.70;;;1.83;;
67995;SDS011;54772;53.544;49.324;2022-08-19T11:27:49;8.45;;;2.83;;
67995;SDS011;54772;53.544;49.324;2022-08-19T11:30:17;6.18;;;2.40;;
67995;SDS011;54772;53.544;49.324;2022-08-19T11:32:43;4.28;;;2.22;;
67995;SDS011;54772;53.544;49.324;2022-08-19T11:35:10;4.90;;;2.83;;
67995;SDS011;54772;53.544;49.324;2022-08-19T11:37:37;4.90;;;2.15;;
67995;SDS011;54772;53.544;49.324;2022-08-19T11:40:05;3.42;;;2.45;;
67995;SDS011;54772;53.544;49.324;2022-08-19T11:42:32;5.28;;;2.50;;
67995;SDS011;54772;53.544;49.324;2022-08-19T11:45:18;6.32;;;2.03;;
67995;SDS011;54772;53.544;49.324;2022-08-19T11:47:45;2.22;;;1.83;;
67995;SDS011;54772;53.544;49.324;2022-08-19T11:50:12;4.10;;;2.00;;
67995;SDS011;54772;53.544;49.324;2022-08-19T11:52:40;5.43;;;1.95;;
67995;SDS011;54772;53.544;49.324;2022-08-19T11:55:08;4.20;;;1.83;;
67995;SDS011;54772;53.544;49.324;2022-08-19T11:57:34;2.83;;;2.08;;
67995;SDS011;54772;53.544;49.324;2022-08-19T12:00:02;2.95;;;2.25;;
67995;SDS011;54772;53.544;49.324;2022-08-19T12:02:31;1.70;;;1.20;;
67995;SDS011;54772;53.544;49.324;2022-08-19T12:04:58;4.62;;;2.17;;
67995;SDS011;54772;53.544;49.324;2022-08-19T12:07:28;2.75;;;2.00;;
67995;SDS011;54772;53.544;49.324;2022-08-19T12:09:58;3.05;;;2.00;;
67995;SDS011;54772;53.544;49.324;2022-08-19T12:12:26;5.45;;;2.75;;
67995;SDS011;54772;53.544;49.324;2022-08-19T12:14:53;2.08;;;1.87;;
67995;SDS011;54772;53.544;49.324;2022-08-19T12:17:24;3.67;;;1.92;;
67995;SDS011;54772;53.544;49.324;2022-08-19T12:19:52;2.60;;;1.90;;
67995;SDS011;54772;53.544;49.324;2022-08-19T12:22:22;2.78;;;2.10;;
67995;SDS011;54772;53.544;49.324;2022-08-19T12:24:49;2.97;;;2.10;;
67995;SDS011;54772;53.544;49.324;2022-08-19T12:27:18;5.80;;;2.50;;
67995;SDS011;54772;53.544;49.324;2022-08-19T12:29:45;4.80;;;2.53;;
67995;SDS011;54772;53.544;49.324;2022-08-19T12:32:12;4.43;;;2.65;;
67995;SDS011;54772;53.544;49.324;2022-08-19T12:34:38;5.03;;;2.25;;
67995;SDS011;54772;53.544;49.324;2022-08-19T12:37:05;4.85;;;2.30;;
67995;SDS011;54772;53.544;49.324;2022-08-19T12:39:37;3.97;;;1.98;;
67995;SDS011;54772;53.544;49.324;2022-08-19T12:42:07;2.78;;;2.15;;
67995;SDS011;54772;53.544;49.324;2022-08-19T12:44:36;3.97;;;2.50;;
67995;SDS011;54772;53.544;49.324;2022-08-19T12:47:05;3.80;;;2.30;;
67995;SDS011;54772;53.544;49.324;2022-08-19T12:49:32;2.60;;;1.98;;
67995;SDS011;54772;53.544;49.324;2022-08-19T12:52:05;3.33;;;2.00;;
67995;SDS011;54772;53.544;49.324;2022-08-19T12:54:33;3.83;;;2.25;;
67995;SDS011;54772;53.544;49.324;2022-08-19T12:57:04;2.40;;;2.03;;
67995;SDS011;54772;53.544;49.324;2022-08-19T12:59:32;4.12;;;2.20;;
67995;SDS011;54772;53.544;49.324;2022-08-19T13:01:59;4.07;;;2.20;;
67995;SDS011;54772;53.544;49.324;2022-08-19T13:04:26;4.15;;;2.08;;
67995;SDS011;54772;53.544;49.324;2022-08-19T13:06:53;3.12;;;1.90;;
67995;SDS011;54772;53.544;49.324;2022-08-19T13:09:19;2.62;;;1.33;;
67995;SDS011;54772;53.544;49.324;2022-08-19T13:11:47;2.83;;;2.15;;
67995;SDS011;54772;53.544;49.324;2022-08-19T13:14:13;4.30;;;2.30;;
67995;SDS011;54772;53.544;49.324;2022-08-19T13:16:40;4.60;;;2.50;;
67995;SDS011;54772;53.544;49.324;2022-08-19T13:19:07;3.22;;;1.95;;
67995;SDS011;54772;53.544;49.324;2022-08-19T13:21:35;5.47;;;2.12;;
67995;SDS011;54772;53.544;49.324;2022-08-19T13:24:02;4.80;;;2.20;;
67995;SDS011;54772;53.544;49.324;2022-08-19T13:26:29;3.15;;;2.10;;
67995;SDS011;54772;53.544;49.324;2022-08-19T13:28:56;3.12;;;2.08;;
67995;SDS011;54772;53.544;49.324;2022-08-19T13:31:41;6.40;;;2.20;;
67995;SDS011;54772;53.544;49.324;2022-08-19T13:34:29;4.03;;;2.28;;
67995;SDS011;54772;53.544;49.324;2022-08-19T13:36:57;3.92;;;1.90;;
67995;SDS011;54772;53.544;49.324;2022-08-19T13:39:24;3.20;;;2.10;;
67995;SDS011;54772;53.544;49.324;2022-08-19T13:41:51;5.30;;;2.15;;
67995;SDS011;54772;53.544;49.324;2022-08-19T13:44:17;3.62;;;1.85;;
67995;SDS011;54772;53.544;49.324;2022-08-19T13:46:45;6.75;;;2.00;;
67995;SDS011;54772;53.544;49.324;2022-08-19T13:49:14;4.82;;;2.50;;
67995;SDS011;54772;53.544;49.324;2022-08-19T13:51:42;4.50;;;1.98;;
67995;SDS011;54772;53.544;49.324;2022-08-19T13:54:09;2.12;;;1.60;;
67995;SDS011;54772;53.544;49.324;2022-08-19T13:56:40;3.85;;;1.95;;
67995;SDS011;54772;53.544;49.324;2022-08-19T13:59:07;2.53;;;1.75;;
67995;SDS011;54772;53.544;49.324;2022-08-19T14:01:34;4.80;;;2.00;;
67995;SDS011;54772;53.544;49.324;2022-08-19T14:04:02;2.50;;;1.87;;
67995;SDS011;54772;53.544;49.324;2022-08-19T14:06:29;4.28;;;2.10;;
67995;SDS011;54772;53.544;49.324;2022-08-19T14:08:55;3.12;;;1.95;;
67995;SDS011;54772;53.544;49.324;2022-08-19T14:11:22;2.53;;;1.70;;
67995;SDS011;54772;53.544;49.324;2022-08-19T14:13:49;4.50;;;2.12;;
67995;SDS011;54772;53.544;49.324;2022-08-19T14:16:16;3.42;;;1.85;;
67995;SDS011;54772;53.544;49.324;2022-08-19T14:18:43;6.45;;;1.92;;
67995;SDS011;54772;53.544;49.324;2022-08-19T14:21:14;3.17;;;1.98;;
67995;SDS011;54772;53.544;49.324;2022-08-19T14:23:45;6.43;;;2.00;;
67995;SDS011;54772;53.544;49.324;2022-08-19T14:26:13;3.33;;;1.90;;
67995;SDS011;54772;53.544;49.324;2022-08-19T14:28:42;4.18;;;1.60;;
67995;SDS011;54772;53.544;49.324;2022-08-19T14:31:10;2.95;;;1.83;;
67995;SDS011;54772;53.544;49.324;2022-08-19T14:33:38;4.93;;;2.00;;
67995;SDS011;54772;53.544;49.324;2022-08-19T14:36:05;3.00;;;1.80;;
67995;SDS011;54772;53.544;49.324;2022-08-19T14:38:32;4.15;;;1.95;;
67995;SDS011;54772;53.544;49.324;2022-08-19T14:41:07;3.05;;;1.90;;
67995;SDS011;54772;53.544;49.324;2022-08-19T14:43:42;2.25;;;1.77;;
67995;SDS011;54772;53.544;49.324;2022-08-19T14:46:13;2.47;;;1.70;;
67995;SDS011;54772;53.544;49.324;2022-08-19T14:48:41;1.23;;;0.80;;
67995;SDS011;54772;53.544;49.324;2022-08-19T14:51:08;2.42;;;1.62;;
67995;SDS011;54772;53.544;49.324;2022-08-19T14:53:35;3.50;;;2.35;;